sensor_id;sensor_type;location;lat;lon;timestamp;P1;durP1;ratioP1;P2;durP2;ratioP2
69678;SDS011;56915;52.046;4.854;2022-12-18T00:02:12;64.70;;;15.50;;
69678;SDS011;56915;52.046;4.854;2022-12-18T00:04:39;69.65;;;15.45;;
69678;SDS011;56915;52.046;4.854;2022-12-18T00:07:05;70.77;;;15.23;;
69678;SDS011;56915;52.046;4.854;2022-12-18T00:09:32;72.80;;;16.02;;
69678;SDS011;56915;52.046;4.854;2022-12-18T00:12:05;73.43;;;15.35;;
69678;SDS011;56915;52.046;4.854;2022-12-18T00:14:40;57.88;;;13.85;;
69678;SDS011;56915;52.046;4.854;2022-12-18T00:17:08;64.68;;;13.90;;
69678;SDS011;56915;52.046;4.854;2022-12-18T00:19:35;64.33;;;14.63;;
69678;SDS011;56915;52.046;4.854;2022-12-18T00:22:02;58.30;;;14.43;;
69678;SDS011;56915;52.046;4.854;2022-12-18T00:24:28;68.93;;;15.68;;
69678;SDS011;56915;52.046;4.854;2022-12-18T00:26:55;71.07;;;16.05;;
69678;SDS011;56915;52.046;4.854;2022-12-18T00:29:22;68.07;;;14.43;;
69678;SDS011;56915;52.046;4.854;2022-12-18T00:31:48;64.87;;;16.17;;
69678;SDS011;56915;52.046;4.854;2022-12-18T00:34:15;67.43;;;15.68;;
69678;SDS011;56915;52.046;4.854;2022-12-18T00:36:42;64.00;;;16.50;;
69678;SDS011;56915;52.046;4.854;2022-12-18T00:39:09;67.63;;;15.73;;
69678;SDS011;56915;52.046;4.854;2022-12-18T00:41:36;74.68;;;16.38;;
69678;SDS011;56915;52.046;4.854;2022-12-18T00:44:22;82.37;;;16.33;;
69678;SDS011;56915;52.046;4.854;2022-12-18T00:46:49;72.28;;;15.93;;
69678;SDS011;56915;52.046;4.854;2022-12-18T00:49:16;69.00;;;15.77;;
69678;SDS011;56915;52.046;4.854;2022-12-18T00:51:44;75.22;;;15.93;;
69678;SDS011;56915;52.046;4.854;2022-12-18T00:54:11;67.13;;;16.08;;
69678;SDS011;56915;52.046;4.854;2022-12-18T00:56:38;67.87;;;15.07;;
69678;SDS011;56915;52.046;4.854;2022-12-18T00:59:14;49.40;;;13.80;;
69678;SDS011;56915;52.046;4.854;2022-12-18T01:01:42;55.95;;;14.35;;
69678;SDS011;56915;52.046;4.854;2022-12-18T01:04:09;69.25;;;16.10;;
69678;SDS011;56915;52.046;4.854;2022-12-18T01:06:35;65.13;;;16.20;;
69678;SDS011;56915;52.046;4.854;2022-12-18T01:09:02;65.13;;;16.33;;
69678;SDS011;56915;52.046;4.854;2022-12-18T01:11:29;70.40;;;16.05;;
69678;SDS011;56915;52.046;4.854;2022-12-18T01:13:56;74.22;;;15.82;;
69678;SDS011;56915;52.046;4.854;2022-12-18T01:16:26;91.50;;;15.68;;
69678;SDS011;56915;52.046;4.854;2022-12-18T01:18:55;89.72;;;14.45;;
69678;SDS011;56915;52.046;4.854;2022-12-18T01:21:22;67.70;;;15.57;;
69678;SDS011;56915;52.046;4.854;2022-12-18T01:23:54;67.05;;;14.63;;
69678;SDS011;56915;52.046;4.854;2022-12-18T01:26:22;72.50;;;14.57;;
69678;SDS011;56915;52.046;4.854;2022-12-18T01:28:49;65.82;;;14.65;;
69678;SDS011;56915;52.046;4.854;2022-12-18T01:31:18;60.92;;;14.60;;
69678;SDS011;56915;52.046;4.854;2022-12-18T01:33:55;66.10;;;14.13;;
69678;SDS011;56915;52.046;4.854;2022-12-18T01:36:26;60.00;;;14.60;;
69678;SDS011;56915;52.046;4.854;2022-12-18T01:39:02;48.45;;;12.48;;
69678;SDS011;56915;52.046;4.854;2022-12-18T01:41:31;55.30;;;14.52;;
69678;SDS011;56915;52.046;4.854;2022-12-18T01:52:45;60.13;;;13.48;;
69678;SDS011;56915;52.046;4.854;2022-12-18T01:55:18;50.78;;;13.00;;
69678;SDS011;56915;52.046;4.854;2022-12-18T01:57:48;55.63;;;13.68;;
69678;SDS011;56915;52.046;4.854;2022-12-18T02:00:19;52.83;;;13.50;;
69678;SDS011;56915;52.046;4.854;2022-12-18T02:02:48;66.07;;;15.13;;
69678;SDS011;56915;52.046;4.854;2022-12-18T02:05:16;69.55;;;16.45;;
69678;SDS011;56915;52.046;4.854;2022-12-18T02:13:14;83.63;;;16.17;;
69678;SDS011;56915;52.046;4.854;2022-12-18T02:16:09;61.13;;;15.10;;
69678;SDS011;56915;52.046;4.854;2022-12-18T02:18:42;64.28;;;15.18;;
69678;SDS011;56915;52.046;4.854;2022-12-18T02:21:32;69.07;;;15.95;;
69678;SDS011;56915;52.046;4.854;2022-12-18T02:24:33;61.45;;;15.30;;
69678;SDS011;56915;52.046;4.854;2022-12-18T02:27:08;50.00;;;13.47;;
69678;SDS011;56915;52.046;4.854;2022-12-18T02:29:57;65.40;;;14.88;;
69678;SDS011;56915;52.046;4.854;2022-12-18T02:32:27;61.67;;;13.88;;
69678;SDS011;56915;52.046;4.854;2022-12-18T02:34:57;56.00;;;13.35;;
69678;SDS011;56915;52.046;4.854;2022-12-18T02:37:25;53.85;;;13.48;;
69678;SDS011;56915;52.046;4.854;2022-12-18T02:39:55;49.37;;;13.83;;
69678;SDS011;56915;52.046;4.854;2022-12-18T02:42:24;62.17;;;13.43;;
69678;SDS011;56915;52.046;4.854;2022-12-18T02:44:52;56.17;;;14.52;;
69678;SDS011;56915;52.046;4.854;2022-12-18T02:47:22;47.72;;;13.25;;
69678;SDS011;56915;52.046;4.854;2022-12-18T02:55:23;55.08;;;14.10;;
69678;SDS011;56915;52.046;4.854;2022-12-18T03:00:58;56.25;;;14.65;;
69678;SDS011;56915;52.046;4.854;2022-12-18T03:03:47;61.80;;;14.77;;
69678;SDS011;56915;52.046;4.854;2022-12-18T03:09:01;55.33;;;14.95;;
69678;SDS011;56915;52.046;4.854;2022-12-18T03:11:33;72.72;;;15.43;;
69678;SDS011;56915;52.046;4.854;2022-12-18T03:14:20;74.93;;;15.32;;
69678;SDS011;56915;52.046;4.854;2022-12-18T03:16:50;61.47;;;15.23;;
69678;SDS011;56915;52.046;4.854;2022-12-18T03:19:21;68.80;;;15.60;;
69678;SDS011;56915;52.046;4.854;2022-12-18T03:21:53;72.20;;;15.77;;
69678;SDS011;56915;52.046;4.854;2022-12-18T03:24:22;68.60;;;15.40;;
69678;SDS011;56915;52.046;4.854;2022-12-18T03:26:54;56.03;;;14.85;;
69678;SDS011;56915;52.046;4.854;2022-12-18T03:29:33;78.85;;;14.57;;
69678;SDS011;56915;52.046;4.854;2022-12-18T03:33:08;97.17;;;14.83;;
69678;SDS011;56915;52.046;4.854;2022-12-18T03:35:07;76.03;;;15.43;;
69678;SDS011;56915;52.046;4.854;2022-12-18T03:37:36;63.60;;;13.48;;
69678;SDS011;56915;52.046;4.854;2022-12-18T03:40:04;81.50;;;15.00;;
69678;SDS011;56915;52.046;4.854;2022-12-18T03:42:32;54.17;;;13.38;;
69678;SDS011;56915;52.046;4.854;2022-12-18T03:53:32;60.05;;;13.95;;
69678;SDS011;56915;52.046;4.854;2022-12-18T03:56:18;53.63;;;14.45;;
69678;SDS011;56915;52.046;4.854;2022-12-18T03:58:48;53.60;;;14.27;;
69678;SDS011;56915;52.046;4.854;2022-12-18T04:01:17;56.42;;;14.73;;
69678;SDS011;56915;52.046;4.854;2022-12-18T04:03:48;52.75;;;14.48;;
69678;SDS011;56915;52.046;4.854;2022-12-18T04:06:16;56.35;;;13.73;;
69678;SDS011;56915;52.046;4.854;2022-12-18T04:08:44;51.05;;;14.20;;
69678;SDS011;56915;52.046;4.854;2022-12-18T04:11:12;55.27;;;14.23;;
69678;SDS011;56915;52.046;4.854;2022-12-18T04:13:39;55.78;;;14.52;;
69678;SDS011;56915;52.046;4.854;2022-12-18T04:16:08;55.30;;;13.93;;
69678;SDS011;56915;52.046;4.854;2022-12-18T04:18:35;61.38;;;15.30;;
69678;SDS011;56915;52.046;4.854;2022-12-18T04:21:02;53.35;;;14.48;;
69678;SDS011;56915;52.046;4.854;2022-12-18T04:23:29;52.87;;;13.87;;
69678;SDS011;56915;52.046;4.854;2022-12-18T04:25:56;49.85;;;13.48;;
69678;SDS011;56915;52.046;4.854;2022-12-18T04:28:23;48.30;;;14.05;;
69678;SDS011;56915;52.046;4.854;2022-12-18T04:30:49;56.15;;;14.88;;
69678;SDS011;56915;52.046;4.854;2022-12-18T04:33:16;51.53;;;13.85;;
69678;SDS011;56915;52.046;4.854;2022-12-18T04:35:43;56.73;;;14.87;;
69678;SDS011;56915;52.046;4.854;2022-12-18T04:38:10;58.33;;;14.38;;
69678;SDS011;56915;52.046;4.854;2022-12-18T04:40:37;49.53;;;13.93;;
69678;SDS011;56915;52.046;4.854;2022-12-18T04:43:06;58.03;;;14.80;;
69678;SDS011;56915;52.046;4.854;2022-12-18T04:45:33;57.90;;;14.40;;
69678;SDS011;56915;52.046;4.854;2022-12-18T04:48:01;51.27;;;13.93;;
69678;SDS011;56915;52.046;4.854;2022-12-18T04:50:28;57.13;;;14.95;;
69678;SDS011;56915;52.046;4.854;2022-12-18T04:52:56;54.20;;;15.13;;
69678;SDS011;56915;52.046;4.854;2022-12-18T04:55:23;55.15;;;14.45;;
69678;SDS011;56915;52.046;4.854;2022-12-18T04:57:50;52.42;;;13.80;;
69678;SDS011;56915;52.046;4.854;2022-12-18T05:00:17;53.17;;;13.73;;
69678;SDS011;56915;52.046;4.854;2022-12-18T05:02:44;53.13;;;14.18;;
69678;SDS011;56915;52.046;4.854;2022-12-18T05:05:11;53.30;;;13.93;;
69678;SDS011;56915;52.046;4.854;2022-12-18T05:07:37;49.92;;;14.15;;
69678;SDS011;56915;52.046;4.854;2022-12-18T05:10:04;51.63;;;14.50;;
69678;SDS011;56915;52.046;4.854;2022-12-18T05:12:32;51.83;;;14.07;;
69678;SDS011;56915;52.046;4.854;2022-12-18T05:14:59;50.65;;;13.55;;
69678;SDS011;56915;52.046;4.854;2022-12-18T05:17:25;49.47;;;14.45;;
69678;SDS011;56915;52.046;4.854;2022-12-18T05:19:52;55.60;;;14.20;;
69678;SDS011;56915;52.046;4.854;2022-12-18T05:22:19;51.03;;;13.15;;
69678;SDS011;56915;52.046;4.854;2022-12-18T05:24:45;45.23;;;13.40;;
69678;SDS011;56915;52.046;4.854;2022-12-18T05:27:12;46.47;;;13.15;;
69678;SDS011;56915;52.046;4.854;2022-12-18T05:29:39;45.67;;;13.73;;
69678;SDS011;56915;52.046;4.854;2022-12-18T05:32:06;45.08;;;12.73;;
69678;SDS011;56915;52.046;4.854;2022-12-18T05:34:33;49.65;;;13.55;;
69678;SDS011;56915;52.046;4.854;2022-12-18T05:36:59;43.80;;;13.30;;
69678;SDS011;56915;52.046;4.854;2022-12-18T05:39:26;47.00;;;13.20;;
69678;SDS011;56915;52.046;4.854;2022-12-18T05:41:53;48.60;;;13.73;;
69678;SDS011;56915;52.046;4.854;2022-12-18T05:44:19;48.17;;;13.05;;
69678;SDS011;56915;52.046;4.854;2022-12-18T05:46:46;43.78;;;12.93;;
69678;SDS011;56915;52.046;4.854;2022-12-18T05:49:13;48.90;;;13.57;;
69678;SDS011;56915;52.046;4.854;2022-12-18T05:51:40;43.78;;;13.13;;
69678;SDS011;56915;52.046;4.854;2022-12-18T05:54:07;44.42;;;13.05;;
69678;SDS011;56915;52.046;4.854;2022-12-18T05:56:35;44.05;;;12.77;;
69678;SDS011;56915;52.046;4.854;2022-12-18T05:59:02;43.47;;;13.52;;
69678;SDS011;56915;52.046;4.854;2022-12-18T06:01:29;47.17;;;13.40;;
69678;SDS011;56915;52.046;4.854;2022-12-18T06:03:56;46.75;;;13.75;;
69678;SDS011;56915;52.046;4.854;2022-12-18T06:06:24;40.78;;;13.73;;
69678;SDS011;56915;52.046;4.854;2022-12-18T06:08:52;41.50;;;13.10;;
69678;SDS011;56915;52.046;4.854;2022-12-18T06:11:25;40.42;;;13.15;;
69678;SDS011;56915;52.046;4.854;2022-12-18T06:13:53;42.33;;;13.50;;
69678;SDS011;56915;52.046;4.854;2022-12-18T06:16:24;38.03;;;12.93;;
69678;SDS011;56915;52.046;4.854;2022-12-18T06:18:52;42.15;;;13.60;;
69678;SDS011;56915;52.046;4.854;2022-12-18T06:21:21;40.60;;;13.45;;
69678;SDS011;56915;52.046;4.854;2022-12-18T06:23:48;47.30;;;14.20;;
69678;SDS011;56915;52.046;4.854;2022-12-18T06:26:15;45.77;;;14.50;;
69678;SDS011;56915;52.046;4.854;2022-12-18T06:28:42;45.17;;;14.50;;
69678;SDS011;56915;52.046;4.854;2022-12-18T06:31:09;45.03;;;14.32;;
69678;SDS011;56915;52.046;4.854;2022-12-18T06:33:36;49.60;;;14.93;;
69678;SDS011;56915;52.046;4.854;2022-12-18T06:36:08;46.77;;;15.03;;
69678;SDS011;56915;52.046;4.854;2022-12-18T06:38:38;47.55;;;15.55;;
69678;SDS011;56915;52.046;4.854;2022-12-18T06:41:11;45.97;;;15.00;;
69678;SDS011;56915;52.046;4.854;2022-12-18T06:43:43;45.45;;;16.05;;
69678;SDS011;56915;52.046;4.854;2022-12-18T06:46:10;49.30;;;16.40;;
69678;SDS011;56915;52.046;4.854;2022-12-18T06:48:38;48.60;;;16.27;;
69678;SDS011;56915;52.046;4.854;2022-12-18T06:51:05;43.88;;;15.10;;
69678;SDS011;56915;52.046;4.854;2022-12-18T06:53:32;46.90;;;16.00;;
69678;SDS011;56915;52.046;4.854;2022-12-18T06:56:03;45.50;;;15.48;;
69678;SDS011;56915;52.046;4.854;2022-12-18T06:58:35;46.67;;;15.48;;
69678;SDS011;56915;52.046;4.854;2022-12-18T07:01:03;50.95;;;15.25;;
69678;SDS011;56915;52.046;4.854;2022-12-18T07:03:32;44.03;;;15.80;;
69678;SDS011;56915;52.046;4.854;2022-12-18T07:05:59;45.20;;;15.00;;
69678;SDS011;56915;52.046;4.854;2022-12-18T07:08:26;41.90;;;14.75;;
69678;SDS011;56915;52.046;4.854;2022-12-18T07:10:54;43.92;;;14.98;;
69678;SDS011;56915;52.046;4.854;2022-12-18T07:13:21;45.72;;;15.00;;
69678;SDS011;56915;52.046;4.854;2022-12-18T07:15:48;44.45;;;14.18;;
69678;SDS011;56915;52.046;4.854;2022-12-18T07:18:15;41.73;;;14.27;;
69678;SDS011;56915;52.046;4.854;2022-12-18T07:20:42;39.38;;;13.05;;
69678;SDS011;56915;52.046;4.854;2022-12-18T07:23:09;43.58;;;14.07;;
69678;SDS011;56915;52.046;4.854;2022-12-18T07:25:36;44.63;;;13.63;;
69678;SDS011;56915;52.046;4.854;2022-12-18T07:28:03;44.83;;;13.53;;
69678;SDS011;56915;52.046;4.854;2022-12-18T07:30:30;34.75;;;13.13;;
69678;SDS011;56915;52.046;4.854;2022-12-18T07:32:57;39.15;;;13.25;;
69678;SDS011;56915;52.046;4.854;2022-12-18T07:35:23;36.65;;;13.18;;
69678;SDS011;56915;52.046;4.854;2022-12-18T07:37:50;39.05;;;12.80;;
69678;SDS011;56915;52.046;4.854;2022-12-18T07:40:17;32.80;;;12.00;;
69678;SDS011;56915;52.046;4.854;2022-12-18T07:42:44;36.10;;;12.00;;
69678;SDS011;56915;52.046;4.854;2022-12-18T07:45:11;35.65;;;12.38;;
69678;SDS011;56915;52.046;4.854;2022-12-18T07:47:37;31.42;;;10.48;;
69678;SDS011;56915;52.046;4.854;2022-12-18T07:50:04;29.83;;;9.63;;
69678;SDS011;56915;52.046;4.854;2022-12-18T07:52:32;36.67;;;11.85;;
69678;SDS011;56915;52.046;4.854;2022-12-18T07:54:59;41.10;;;12.43;;
69678;SDS011;56915;52.046;4.854;2022-12-18T07:57:26;31.80;;;11.50;;
69678;SDS011;56915;52.046;4.854;2022-12-18T08:00:12;33.75;;;11.77;;
69678;SDS011;56915;52.046;4.854;2022-12-18T08:02:40;36.10;;;12.03;;
69678;SDS011;56915;52.046;4.854;2022-12-18T08:07:46;35.90;;;12.35;;
69678;SDS011;56915;52.046;4.854;2022-12-18T08:10:13;34.15;;;11.45;;
69678;SDS011;56915;52.046;4.854;2022-12-18T08:12:40;34.00;;;11.95;;
69678;SDS011;56915;52.046;4.854;2022-12-18T08:15:08;36.93;;;12.63;;
69678;SDS011;56915;52.046;4.854;2022-12-18T08:17:35;31.20;;;11.35;;
69678;SDS011;56915;52.046;4.854;2022-12-18T08:20:02;33.00;;;10.93;;
69678;SDS011;56915;52.046;4.854;2022-12-18T08:22:30;32.88;;;12.30;;
69678;SDS011;56915;52.046;4.854;2022-12-18T08:24:57;34.55;;;11.65;;
69678;SDS011;56915;52.046;4.854;2022-12-18T08:27:24;29.33;;;10.87;;
69678;SDS011;56915;52.046;4.854;2022-12-18T08:29:55;31.00;;;11.27;;
69678;SDS011;56915;52.046;4.854;2022-12-18T08:32:27;28.67;;;10.68;;
69678;SDS011;56915;52.046;4.854;2022-12-18T08:34:54;31.27;;;10.40;;
69678;SDS011;56915;52.046;4.854;2022-12-18T08:37:21;27.35;;;9.02;;
69678;SDS011;56915;52.046;4.854;2022-12-18T08:39:48;27.63;;;10.20;;
69678;SDS011;56915;52.046;4.854;2022-12-18T08:42:15;19.38;;;7.18;;
69678;SDS011;56915;52.046;4.854;2022-12-18T08:45:00;31.77;;;10.82;;
69678;SDS011;56915;52.046;4.854;2022-12-18T08:47:27;29.33;;;9.95;;
69678;SDS011;56915;52.046;4.854;2022-12-18T08:49:54;26.52;;;9.32;;
69678;SDS011;56915;52.046;4.854;2022-12-18T08:52:21;29.47;;;10.40;;
69678;SDS011;56915;52.046;4.854;2022-12-18T08:54:48;33.28;;;10.55;;
69678;SDS011;56915;52.046;4.854;2022-12-18T08:57:14;30.90;;;10.20;;
69678;SDS011;56915;52.046;4.854;2022-12-18T08:59:42;30.05;;;10.85;;
69678;SDS011;56915;52.046;4.854;2022-12-18T09:02:10;28.65;;;10.40;;
69678;SDS011;56915;52.046;4.854;2022-12-18T09:04:37;30.43;;;10.67;;
69678;SDS011;56915;52.046;4.854;2022-12-18T09:07:05;30.63;;;10.70;;
69678;SDS011;56915;52.046;4.854;2022-12-18T09:09:32;29.10;;;10.65;;
69678;SDS011;56915;52.046;4.854;2022-12-18T09:11:59;29.52;;;10.88;;
69678;SDS011;56915;52.046;4.854;2022-12-18T09:14:26;31.83;;;11.43;;
69678;SDS011;56915;52.046;4.854;2022-12-18T09:16:53;31.67;;;11.30;;
69678;SDS011;56915;52.046;4.854;2022-12-18T09:19:19;31.48;;;11.30;;
69678;SDS011;56915;52.046;4.854;2022-12-18T09:21:46;29.17;;;11.00;;
69678;SDS011;56915;52.046;4.854;2022-12-18T09:24:13;27.85;;;10.10;;
69678;SDS011;56915;52.046;4.854;2022-12-18T09:26:41;32.38;;;11.95;;
69678;SDS011;56915;52.046;4.854;2022-12-18T09:29:12;30.73;;;11.07;;
69678;SDS011;56915;52.046;4.854;2022-12-18T09:31:38;26.70;;;10.73;;
69678;SDS011;56915;52.046;4.854;2022-12-18T09:34:05;30.13;;;10.82;;
69678;SDS011;56915;52.046;4.854;2022-12-18T09:36:33;34.80;;;11.82;;
69678;SDS011;56915;52.046;4.854;2022-12-18T09:39:00;32.88;;;11.48;;
69678;SDS011;56915;52.046;4.854;2022-12-18T09:46:50;32.28;;;11.45;;
69678;SDS011;56915;52.046;4.854;2022-12-18T09:49:26;30.92;;;11.07;;
69678;SDS011;56915;52.046;4.854;2022-12-18T09:52:03;29.58;;;10.95;;
69678;SDS011;56915;52.046;4.854;2022-12-18T09:54:40;33.83;;;11.83;;
69678;SDS011;56915;52.046;4.854;2022-12-18T09:57:12;30.80;;;11.10;;
69678;SDS011;56915;52.046;4.854;2022-12-18T09:59:41;31.92;;;11.68;;
69678;SDS011;56915;52.046;4.854;2022-12-18T10:02:23;30.75;;;11.23;;
69678;SDS011;56915;52.046;4.854;2022-12-18T10:05:05;31.88;;;11.68;;
69678;SDS011;56915;52.046;4.854;2022-12-18T10:10:13;30.80;;;11.90;;
69678;SDS011;56915;52.046;4.854;2022-12-18T10:12:53;30.02;;;10.85;;
69678;SDS011;56915;52.046;4.854;2022-12-18T10:15:32;29.55;;;10.98;;
69678;SDS011;56915;52.046;4.854;2022-12-18T10:20:56;32.80;;;11.87;;
69678;SDS011;56915;52.046;4.854;2022-12-18T10:26:07;30.17;;;11.43;;
69678;SDS011;56915;52.046;4.854;2022-12-18T10:28:36;28.25;;;11.73;;
69678;SDS011;56915;52.046;4.854;2022-12-18T10:31:07;32.33;;;12.43;;
69678;SDS011;56915;52.046;4.854;2022-12-18T10:33:40;32.07;;;11.87;;
69678;SDS011;56915;52.046;4.854;2022-12-18T10:36:07;31.38;;;10.95;;
69678;SDS011;56915;52.046;4.854;2022-12-18T10:38:34;32.25;;;12.13;;
69678;SDS011;56915;52.046;4.854;2022-12-18T10:41:04;29.95;;;10.82;;
69678;SDS011;56915;52.046;4.854;2022-12-18T10:43:43;32.15;;;12.00;;
69678;SDS011;56915;52.046;4.854;2022-12-18T10:48:47;27.65;;;11.00;;
69678;SDS011;56915;52.046;4.854;2022-12-18T10:51:26;28.05;;;11.55;;
69678;SDS011;56915;52.046;4.854;2022-12-18T10:54:06;30.65;;;11.02;;
69678;SDS011;56915;52.046;4.854;2022-12-18T10:56:48;31.30;;;11.40;;
69678;SDS011;56915;52.046;4.854;2022-12-18T10:59:16;30.67;;;12.03;;
69678;SDS011;56915;52.046;4.854;2022-12-18T11:04:18;28.45;;;11.13;;
69678;SDS011;56915;52.046;4.854;2022-12-18T11:07:09;29.38;;;11.57;;
69678;SDS011;56915;52.046;4.854;2022-12-18T11:09:38;26.05;;;9.93;;
69678;SDS011;56915;52.046;4.854;2022-12-18T11:14:50;24.10;;;10.07;;
69678;SDS011;56915;52.046;4.854;2022-12-18T11:17:24;27.52;;;10.43;;
69678;SDS011;56915;52.046;4.854;2022-12-18T11:19:55;24.40;;;10.27;;
69678;SDS011;56915;52.046;4.854;2022-12-18T11:22:27;28.40;;;11.18;;
69678;SDS011;56915;52.046;4.854;2022-12-18T11:24:58;30.47;;;10.60;;
69678;SDS011;56915;52.046;4.854;2022-12-18T11:27:52;26.30;;;10.20;;
69678;SDS011;56915;52.046;4.854;2022-12-18T11:30:22;27.42;;;10.50;;
69678;SDS011;56915;52.046;4.854;2022-12-18T11:33:01;27.92;;;10.77;;
69678;SDS011;56915;52.046;4.854;2022-12-18T11:41:02;25.52;;;9.95;;
69678;SDS011;56915;52.046;4.854;2022-12-18T11:43:45;25.85;;;10.25;;
69678;SDS011;56915;52.046;4.854;2022-12-18T11:46:26;24.65;;;9.80;;
69678;SDS011;56915;52.046;4.854;2022-12-18T11:49:07;25.80;;;10.38;;
69678;SDS011;56915;52.046;4.854;2022-12-18T11:51:47;26.47;;;10.50;;
69678;SDS011;56915;52.046;4.854;2022-12-18T11:54:21;27.05;;;10.30;;
69678;SDS011;56915;52.046;4.854;2022-12-18T11:56:58;23.75;;;9.55;;
69678;SDS011;56915;52.046;4.854;2022-12-18T11:59:35;24.67;;;10.10;;
69678;SDS011;56915;52.046;4.854;2022-12-18T12:10:12;24.70;;;9.73;;
69678;SDS011;56915;52.046;4.854;2022-12-18T12:18:31;25.27;;;10.77;;
69678;SDS011;56915;52.046;4.854;2022-12-18T12:23:40;29.67;;;11.07;;
69678;SDS011;56915;52.046;4.854;2022-12-18T12:31:32;28.07;;;10.23;;
69678;SDS011;56915;52.046;4.854;2022-12-18T12:34:23;27.08;;;10.48;;
69678;SDS011;56915;52.046;4.854;2022-12-18T12:39:35;28.17;;;11.30;;
69678;SDS011;56915;52.046;4.854;2022-12-18T12:42:04;24.20;;;10.43;;
69678;SDS011;56915;52.046;4.854;2022-12-18T12:44:58;27.87;;;10.67;;
69678;SDS011;56915;52.046;4.854;2022-12-18T12:47:31;25.73;;;10.27;;
69678;SDS011;56915;52.046;4.854;2022-12-18T12:50:05;25.83;;;10.80;;
69678;SDS011;56915;52.046;4.854;2022-12-18T12:52:42;27.60;;;10.68;;
69678;SDS011;56915;52.046;4.854;2022-12-18T12:55:17;28.20;;;10.95;;
69678;SDS011;56915;52.046;4.854;2022-12-18T12:58:00;28.83;;;11.27;;
69678;SDS011;56915;52.046;4.854;2022-12-18T13:00:30;27.80;;;11.85;;
69678;SDS011;56915;52.046;4.854;2022-12-18T13:06:05;25.25;;;10.85;;
69678;SDS011;56915;52.046;4.854;2022-12-18T13:08:54;26.98;;;10.82;;
69678;SDS011;56915;52.046;4.854;2022-12-18T13:11:47;27.40;;;11.10;;
69678;SDS011;56915;52.046;4.854;2022-12-18T13:14:33;23.05;;;9.85;;
69678;SDS011;56915;52.046;4.854;2022-12-18T13:19:51;24.90;;;10.50;;
69678;SDS011;56915;52.046;4.854;2022-12-18T13:22:46;29.02;;;11.40;;
69678;SDS011;56915;52.046;4.854;2022-12-18T13:28:03;28.70;;;11.27;;
69678;SDS011;56915;52.046;4.854;2022-12-18T13:30:46;28.48;;;11.23;;
69678;SDS011;56915;52.046;4.854;2022-12-18T13:36:09;27.40;;;10.70;;
69678;SDS011;56915;52.046;4.854;2022-12-18T13:38:40;27.77;;;11.43;;
69678;SDS011;56915;52.046;4.854;2022-12-18T13:43:43;27.75;;;11.55;;
69678;SDS011;56915;52.046;4.854;2022-12-18T13:51:40;25.83;;;10.73;;
69678;SDS011;56915;52.046;4.854;2022-12-18T13:54:25;27.90;;;11.32;;
69678;SDS011;56915;52.046;4.854;2022-12-18T13:57:40;23.80;;;10.07;;
69678;SDS011;56915;52.046;4.854;2022-12-18T14:02:48;32.08;;;11.32;;
69678;SDS011;56915;52.046;4.854;2022-12-18T14:05:23;25.80;;;10.50;;
69678;SDS011;56915;52.046;4.854;2022-12-18T14:07:54;26.95;;;10.68;;
69678;SDS011;56915;52.046;4.854;2022-12-18T14:10:27;27.55;;;10.48;;
69678;SDS011;56915;52.046;4.854;2022-12-18T14:13:23;27.15;;;10.80;;
69678;SDS011;56915;52.046;4.854;2022-12-18T14:15:54;28.50;;;11.25;;
69678;SDS011;56915;52.046;4.854;2022-12-18T14:21:20;28.65;;;12.13;;
69678;SDS011;56915;52.046;4.854;2022-12-18T14:23:49;28.08;;;11.10;;
69678;SDS011;56915;52.046;4.854;2022-12-18T14:26:43;27.30;;;11.30;;
69678;SDS011;56915;52.046;4.854;2022-12-18T14:29:21;27.98;;;11.30;;
69678;SDS011;56915;52.046;4.854;2022-12-18T14:32:33;29.30;;;12.00;;
69678;SDS011;56915;52.046;4.854;2022-12-18T14:34:48;29.65;;;10.63;;
69678;SDS011;56915;52.046;4.854;2022-12-18T14:37:17;28.42;;;10.75;;
69678;SDS011;56915;52.046;4.854;2022-12-18T14:39:58;28.90;;;11.02;;
69678;SDS011;56915;52.046;4.854;2022-12-18T14:42:35;24.50;;;10.55;;
69678;SDS011;56915;52.046;4.854;2022-12-18T14:48:19;25.90;;;9.63;;
69678;SDS011;56915;52.046;4.854;2022-12-18T14:50:56;29.77;;;11.48;;
69678;SDS011;56915;52.046;4.854;2022-12-18T14:53:31;25.58;;;10.63;;
69678;SDS011;56915;52.046;4.854;2022-12-18T14:56:01;29.52;;;10.95;;
69678;SDS011;56915;52.046;4.854;2022-12-18T14:58:29;24.80;;;10.20;;
69678;SDS011;56915;52.046;4.854;2022-12-18T15:00:56;29.55;;;11.27;;
69678;SDS011;56915;52.046;4.854;2022-12-18T15:03:23;29.17;;;10.77;;
69678;SDS011;56915;52.046;4.854;2022-12-18T15:05:52;31.00;;;11.90;;
69678;SDS011;56915;52.046;4.854;2022-12-18T15:08:29;27.88;;;11.38;;
69678;SDS011;56915;52.046;4.854;2022-12-18T15:11:03;28.90;;;11.20;;
69678;SDS011;56915;52.046;4.854;2022-12-18T15:13:50;25.27;;;10.15;;
69678;SDS011;56915;52.046;4.854;2022-12-18T15:16:18;29.55;;;11.30;;
69678;SDS011;56915;52.046;4.854;2022-12-18T15:18:46;30.60;;;11.20;;
69678;SDS011;56915;52.046;4.854;2022-12-18T15:21:16;30.98;;;11.48;;
69678;SDS011;56915;52.046;4.854;2022-12-18T15:23:51;28.43;;;11.33;;
69678;SDS011;56915;52.046;4.854;2022-12-18T15:26:19;30.08;;;10.73;;
69678;SDS011;56915;52.046;4.854;2022-12-18T15:28:48;30.27;;;11.02;;
69678;SDS011;56915;52.046;4.854;2022-12-18T15:36:20;27.07;;;9.90;;
69678;SDS011;56915;52.046;4.854;2022-12-18T15:38:52;27.60;;;11.27;;
69678;SDS011;56915;52.046;4.854;2022-12-18T15:41:32;28.38;;;11.07;;
69678;SDS011;56915;52.046;4.854;2022-12-18T15:44:01;32.33;;;11.27;;
69678;SDS011;56915;52.046;4.854;2022-12-18T15:46:29;29.13;;;10.57;;
69678;SDS011;56915;52.046;4.854;2022-12-18T15:48:57;29.10;;;11.70;;
69678;SDS011;56915;52.046;4.854;2022-12-18T15:51:37;29.70;;;11.35;;
69678;SDS011;56915;52.046;4.854;2022-12-18T15:54:05;28.50;;;10.90;;
69678;SDS011;56915;52.046;4.854;2022-12-18T15:56:37;26.38;;;10.50;;
69678;SDS011;56915;52.046;4.854;2022-12-18T15:59:23;29.95;;;10.88;;
69678;SDS011;56915;52.046;4.854;2022-12-18T16:01:51;29.23;;;10.53;;
69678;SDS011;56915;52.046;4.854;2022-12-18T16:04:21;31.08;;;11.70;;
69678;SDS011;56915;52.046;4.854;2022-12-18T16:06:49;30.75;;;11.15;;
69678;SDS011;56915;52.046;4.854;2022-12-18T16:09:37;27.90;;;10.50;;
69678;SDS011;56915;52.046;4.854;2022-12-18T16:12:05;32.10;;;11.18;;
69678;SDS011;56915;52.046;4.854;2022-12-18T16:14:33;32.17;;;11.87;;
69678;SDS011;56915;52.046;4.854;2022-12-18T16:17:00;27.30;;;10.90;;
69678;SDS011;56915;52.046;4.854;2022-12-18T16:19:31;30.13;;;11.52;;
69678;SDS011;56915;52.046;4.854;2022-12-18T16:21:58;28.42;;;10.82;;
69678;SDS011;56915;52.046;4.854;2022-12-18T16:24:26;31.88;;;11.23;;
69678;SDS011;56915;52.046;4.854;2022-12-18T16:26:56;28.33;;;11.77;;
69678;SDS011;56915;52.046;4.854;2022-12-18T16:29:25;30.33;;;11.65;;
69678;SDS011;56915;52.046;4.854;2022-12-18T16:31:57;29.52;;;11.85;;
69678;SDS011;56915;52.046;4.854;2022-12-18T16:34:26;29.40;;;11.60;;
69678;SDS011;56915;52.046;4.854;2022-12-18T16:37:01;27.83;;;11.00;;
69678;SDS011;56915;52.046;4.854;2022-12-18T16:39:31;29.07;;;11.30;;
69678;SDS011;56915;52.046;4.854;2022-12-18T16:42:11;30.30;;;11.68;;
69678;SDS011;56915;52.046;4.854;2022-12-18T16:44:40;28.50;;;11.27;;
69678;SDS011;56915;52.046;4.854;2022-12-18T16:47:07;27.60;;;10.88;;